sensor_id;sensor_type;location;lat;lon;timestamp;temperature;humidity
41533;DHT22;27262;-35.248;149.138;2022-10-16T00:02:11;19.40;65.10
41533;DHT22;27262;-35.248;149.138;2022-10-16T00:04:42;19.40;65.00
41533;DHT22;27262;-35.248;149.138;2022-10-16T00:07:12;19.50;65.10
41533;DHT22;27262;-35.248;149.138;2022-10-16T00:09:42;19.40;65.00
41533;DHT22;27262;-35.248;149.138;2022-10-16T00:12:12;19.50;65.10
41533;DHT22;27262;-35.248;149.138;2022-10-16T00:14:42;19.50;65.10
41533;DHT22;27262;-35.248;149.138;2022-10-16T00:17:13;19.50;65.00
41533;DHT22;27262;-35.248;149.138;2022-10-16T00:19:43;19.60;65.10
41533;DHT22;27262;-35.248;149.138;2022-10-16T00:22:13;19.60;65.10
41533;DHT22;27262;-35.248;149.138;2022-10-16T00:24:43;19.60;65.00
41533;DHT22;27262;-35.248;149.138;2022-10-16T00:27:14;19.70;65.00
41533;DHT22;27262;-35.248;149.138;2022-10-16T00:29:44;19.70;65.00
41533;DHT22;27262;-35.248;149.138;2022-10-16T00:32:14;19.70;65.10
41533;DHT22;27262;-35.248;149.138;2022-10-16T00:34:45;19.70;65.10
41533;DHT22;27262;-35.248;149.138;2022-10-16T00:37:15;19.70;65.10
41533;DHT22;27262;-35.248;149.138;2022-10-16T00:39:45;19.70;65.00
41533;DHT22;27262;-35.248;149.138;2022-10-16T00:42:19;19.70;65.00
41533;DHT22;27262;-35.248;149.138;2022-10-16T00:44:50;19.80;65.10
41533;DHT22;27262;-35.248;149.138;2022-10-16T00:47:32;19.80;65.00
41533;DHT22;27262;-35.248;149.138;2022-10-16T00:50:08;19.80;65.00
41533;DHT22;27262;-35.248;149.138;2022-10-16T00:52:43;19.90;65.10
41533;DHT22;27262;-35.248;149.138;2022-10-16T00:55:14;19.90;65.20
41533;DHT22;27262;-35.248;149.138;2022-10-16T00:57:45;19.90;65.20
41533;DHT22;27262;-35.248;149.138;2022-10-16T01:00:20;19.90;65.10
41533;DHT22;27262;-35.248;149.138;2022-10-16T01:03:02;19.90;65.00
41533;DHT22;27262;-35.248;149.138;2022-10-16T01:05:44;19.90;64.90
41533;DHT22;27262;-35.248;149.138;2022-10-16T01:08:39;20.00;65.00
41533;DHT22;27262;-35.248;149.138;2022-10-16T01:11:25;20.00;65.10
41533;DHT22;27262;-35.248;149.138;2022-10-16T01:14:01;20.00;65.10
41533;DHT22;27262;-35.248;149.138;2022-10-16T01:16:49;20.00;65.30
41533;DHT22;27262;-35.248;149.138;2022-10-16T01:25:25;20.10;65.50
41533;DHT22;27262;-35.248;149.138;2022-10-16T01:28:00;20.10;65.60
41533;DHT22;27262;-35.248;149.138;2022-10-16T01:30:32;20.10;65.50
41533;DHT22;27262;-35.248;149.138;2022-10-16T01:33:20;20.10;65.50
41533;DHT22;27262;-35.248;149.138;2022-10-16T01:35:56;20.10;65.50
41533;DHT22;27262;-35.248;149.138;2022-10-16T01:38:49;20.10;65.40
41533;DHT22;27262;-35.248;149.138;2022-10-16T01:41:40;20.20;65.40
41533;DHT22;27262;-35.248;149.138;2022-10-16T01:44:18;20.20;65.40
41533;DHT22;27262;-35.248;149.138;2022-10-16T01:46:52;20.20;65.30
41533;DHT22;27262;-35.248;149.138;2022-10-16T01:49:27;20.20;65.30
41533;DHT22;27262;-35.248;149.138;2022-10-16T01:52:02;20.20;65.20
41533;DHT22;27262;-35.248;149.138;2022-10-16T01:54:35;20.30;65.20
41533;DHT22;27262;-35.248;149.138;2022-10-16T01:57:07;20.30;66.60
41533;DHT22;27262;-35.248;149.138;2022-10-16T01:59:45;20.30;67.30
41533;DHT22;27262;-35.248;149.138;2022-10-16T02:02:18;20.30;67.00
41533;DHT22;27262;-35.248;149.138;2022-10-16T02:04:56;20.30;66.50
41533;DHT22;27262;-35.248;149.138;2022-10-16T02:07:28;20.30;66.20
41533;DHT22;27262;-35.248;149.138;2022-10-16T02:10:00;20.30;66.10
41533;DHT22;27262;-35.248;149.138;2022-10-16T02:12:33;20.40;66.00
41533;DHT22;27262;-35.248;149.138;2022-10-16T02:15:05;20.40;66.00
41533;DHT22;27262;-35.248;149.138;2022-10-16T02:17:35;20.40;66.00
41533;DHT22;27262;-35.248;149.138;2022-10-16T02:20:06;20.40;65.90
41533;DHT22;27262;-35.248;149.138;2022-10-16T02:22:40;20.40;65.90
41533;DHT22;27262;-35.248;149.138;2022-10-16T02:28:10;20.50;65.90
41533;DHT22;27262;-35.248;149.138;2022-10-16T02:33:18;20.50;66.00
41533;DHT22;27262;-35.248;149.138;2022-10-16T02:35:50;20.50;66.00
41533;DHT22;27262;-35.248;149.138;2022-10-16T02:38:21;20.50;65.90
41533;DHT22;27262;-35.248;149.138;2022-10-16T02:40:52;20.50;65.90
41533;DHT22;27262;-35.248;149.138;2022-10-16T02:43:24;20.50;66.00
41533;DHT22;27262;-35.248;149.138;2022-10-16T02:45:54;20.50;65.80
41533;DHT22;27262;-35.248;149.138;2022-10-16T02:48:25;20.60;65.90
41533;DHT22;27262;-35.248;149.138;2022-10-16T02:50:55;20.60;65.90
41533;DHT22;27262;-35.248;149.138;2022-10-16T02:53:27;20.60;65.80
41533;DHT22;27262;-35.248;149.138;2022-10-16T02:55:58;20.60;65.70
41533;DHT22;27262;-35.248;149.138;2022-10-16T02:58:28;20.60;65.70
41533;DHT22;27262;-35.248;149.138;2022-10-16T03:00:59;20.60;65.70
41533;DHT22;27262;-35.248;149.138;2022-10-16T03:03:30;20.60;65.70
41533;DHT22;27262;-35.248;149.138;2022-10-16T03:06:00;20.60;65.60
41533;DHT22;27262;-35.248;149.138;2022-10-16T03:08:30;20.60;65.50
41533;DHT22;27262;-35.248;149.138;2022-10-16T03:11:00;20.60;65.50
41533;DHT22;27262;-35.248;149.138;2022-10-16T03:13:33;20.70;65.50
41533;DHT22;27262;-35.248;149.138;2022-10-16T03:16:03;20.70;65.50
41533;DHT22;27262;-35.248;149.138;2022-10-16T03:18:34;20.70;65.50
41533;DHT22;27262;-35.248;149.138;2022-10-16T03:21:04;20.70;65.40
41533;DHT22;27262;-35.248;149.138;2022-10-16T03:23:34;20.70;65.40
41533;DHT22;27262;-35.248;149.138;2022-10-16T03:26:04;20.70;65.40
41533;DHT22;27262;-35.248;149.138;2022-10-16T03:28:35;20.70;65.30
41533;DHT22;27262;-35.248;149.138;2022-10-16T03:31:05;20.80;65.40
41533;DHT22;27262;-35.248;149.138;2022-10-16T03:33:35;20.80;65.40
41533;DHT22;27262;-35.248;149.138;2022-10-16T03:36:06;20.80;65.40
41533;DHT22;27262;-35.248;149.138;2022-10-16T03:38:36;20.80;65.40
41533;DHT22;27262;-35.248;149.138;2022-10-16T03:41:06;20.80;65.50
41533;DHT22;27262;-35.248;149.138;2022-10-16T03:43:37;20.80;65.40
41533;DHT22;27262;-35.248;149.138;2022-10-16T03:46:07;20.80;65.40
41533;DHT22;27262;-35.248;149.138;2022-10-16T03:48:37;20.80;65.50
41533;DHT22;27262;-35.248;149.138;2022-10-16T03:51:09;20.80;65.50
41533;DHT22;27262;-35.248;149.138;2022-10-16T03:53:39;20.90;65.40
41533;DHT22;27262;-35.248;149.138;2022-10-16T03:56:09;20.90;65.40
41533;DHT22;27262;-35.248;149.138;2022-10-16T03:58:39;20.90;65.40
41533;DHT22;27262;-35.248;149.138;2022-10-16T04:01:10;20.90;65.50
41533;DHT22;27262;-35.248;149.138;2022-10-16T04:03:40;20.90;65.50
41533;DHT22;27262;-35.248;149.138;2022-10-16T04:06:10;20.90;65.60
41533;DHT22;27262;-35.248;149.138;2022-10-16T04:08:43;21.00;65.70
41533;DHT22;27262;-35.248;149.138;2022-10-16T04:11:13;21.00;65.70
41533;DHT22;27262;-35.248;149.138;2022-10-16T04:13:43;21.00;65.70
41533;DHT22;27262;-35.248;149.138;2022-10-16T04:16:14;21.00;65.70
41533;DHT22;27262;-35.248;149.138;2022-10-16T04:18:44;21.00;65.70
41533;DHT22;27262;-35.248;149.138;2022-10-16T04:21:14;21.00;65.60
41533;DHT22;27262;-35.248;149.138;2022-10-16T04:23:44;21.00;65.70
41533;DHT22;27262;-35.248;149.138;2022-10-16T04:26:15;21.00;65.70
41533;DHT22;27262;-35.248;149.138;2022-10-16T04:28:45;21.00;65.70
41533;DHT22;27262;-35.248;149.138;2022-10-16T04:31:15;21.00;65.70
41533;DHT22;27262;-35.248;149.138;2022-10-16T04:33:46;21.10;65.80
41533;DHT22;27262;-35.248;149.138;2022-10-16T04:36:16;21.00;65.70
41533;DHT22;27262;-35.248;149.138;2022-10-16T04:38:46;21.10;65.70
41533;DHT22;27262;-35.248;149.138;2022-10-16T04:41:19;21.10;65.80
41533;DHT22;27262;-35.248;149.138;2022-10-16T04:43:49;21.10;65.80
41533;DHT22;27262;-35.248;149.138;2022-10-16T04:46:20;21.10;65.80
41533;DHT22;27262;-35.248;149.138;2022-10-16T04:48:50;21.10;65.80
41533;DHT22;27262;-35.248;149.138;2022-10-16T04:51:20;21.10;65.70
41533;DHT22;27262;-35.248;149.138;2022-10-16T04:53:50;21.10;65.70
41533;DHT22;27262;-35.248;149.138;2022-10-16T04:56:21;21.10;65.70
41533;DHT22;27262;-35.248;149.138;2022-10-16T04:58:52;21.10;65.60
41533;DHT22;27262;-35.248;149.138;2022-10-16T05:01:22;21.10;65.60
41533;DHT22;27262;-35.248;149.138;2022-10-16T05:03:52;21.10;65.60
41533;DHT22;27262;-35.248;149.138;2022-10-16T05:06:22;21.20;65.60
41533;DHT22;27262;-35.248;149.138;2022-10-16T05:09:02;21.20;65.60
41533;DHT22;27262;-35.248;149.138;2022-10-16T05:11:32;21.20;65.60
41533;DHT22;27262;-35.248;149.138;2022-10-16T05:14:03;21.20;65.60
41533;DHT22;27262;-35.248;149.138;2022-10-16T05:16:33;21.20;65.60
41533;DHT22;27262;-35.248;149.138;2022-10-16T05:19:03;21.20;65.60
41533;DHT22;27262;-35.248;149.138;2022-10-16T05:21:53;21.20;65.60
41533;DHT22;27262;-35.248;149.138;2022-10-16T05:24:24;21.20;65.60
41533;DHT22;27262;-35.248;149.138;2022-10-16T05:26:54;21.20;65.60
41533;DHT22;27262;-35.248;149.138;2022-10-16T05:29:25;21.20;65.50
41533;DHT22;27262;-35.248;149.138;2022-10-16T05:31:55;21.20;65.60
41533;DHT22;27262;-35.248;149.138;2022-10-16T05:34:25;21.20;65.50
41533;DHT22;27262;-35.248;149.138;2022-10-16T05:36:55;21.20;65.50
41533;DHT22;27262;-35.248;149.138;2022-10-16T05:39:26;21.20;65.50
41533;DHT22;27262;-35.248;149.138;2022-10-16T05:41:56;21.20;65.50
41533;DHT22;27262;-35.248;149.138;2022-10-16T05:44:27;21.20;65.50
41533;DHT22;27262;-35.248;149.138;2022-10-16T05:46:57;21.20;65.50
41533;DHT22;27262;-35.248;149.138;2022-10-16T05:49:27;21.20;65.50
41533;DHT22;27262;-35.248;149.138;2022-10-16T05:51:58;21.20;65.50
41533;DHT22;27262;-35.248;149.138;2022-10-16T05:54:28;21.20;65.50
41533;DHT22;27262;-35.248;149.138;2022-10-16T05:56:58;21.20;65.50
41533;DHT22;27262;-35.248;149.138;2022-10-16T05:59:28;21.20;65.50
41533;DHT22;27262;-35.248;149.138;2022-10-16T06:01:58;21.20;65.50
41533;DHT22;27262;-35.248;149.138;2022-10-16T06:04:28;21.30;65.60
41533;DHT22;27262;-35.248;149.138;2022-10-16T06:06:59;21.30;65.50
41533;DHT22;27262;-35.248;149.138;2022-10-16T06:09:32;21.30;65.60
41533;DHT22;27262;-35.248;149.138;2022-10-16T06:12:03;21.30;65.60
41533;DHT22;27262;-35.248;149.138;2022-10-16T06:14:33;21.30;65.60
41533;DHT22;27262;-35.248;149.138;2022-10-16T06:17:03;21.30;65.60
41533;DHT22;27262;-35.248;149.138;2022-10-16T06:19:33;21.30;65.60
41533;DHT22;27262;-35.248;149.138;2022-10-16T06:22:04;21.30;65.60
41533;DHT22;27262;-35.248;149.138;2022-10-16T06:24:34;21.30;65.60
41533;DHT22;27262;-35.248;149.138;2022-10-16T06:27:05;21.30;65.60
41533;DHT22;27262;-35.248;149.138;2022-10-16T06:29:35;21.30;65.60
41533;DHT22;27262;-35.248;149.138;2022-10-16T06:32:05;21.30;65.60
41533;DHT22;27262;-35.248;149.138;2022-10-16T06:34:35;21.30;65.60
41533;DHT22;27262;-35.248;149.138;2022-10-16T06:37:10;21.30;65.60
41533;DHT22;27262;-35.248;149.138;2022-10-16T06:39:41;21.30;65.50
41533;DHT22;27262;-35.248;149.138;2022-10-16T06:42:11;21.30;65.50
41533;DHT22;27262;-35.248;149.138;2022-10-16T06:44:41;21.30;65.40
41533;DHT22;27262;-35.248;149.138;2022-10-16T06:47:12;21.30;65.30
41533;DHT22;27262;-35.248;149.138;2022-10-16T06:49:42;21.30;65.30
41533;DHT22;27262;-35.248;149.138;2022-10-16T06:52:17;21.40;65.30
41533;DHT22;27262;-35.248;149.138;2022-10-16T06:54:47;21.40;65.40
41533;DHT22;27262;-35.248;149.138;2022-10-16T06:57:18;21.40;65.50
41533;DHT22;27262;-35.248;149.138;2022-10-16T06:59:48;21.40;65.50
41533;DHT22;27262;-35.248;149.138;2022-10-16T07:02:22;21.40;65.60
41533;DHT22;27262;-35.248;149.138;2022-10-16T07:04:53;21.40;65.60
41533;DHT22;27262;-35.248;149.138;2022-10-16T07:07:23;21.40;65.70
41533;DHT22;27262;-35.248;149.138;2022-10-16T07:09:55;21.40;65.60
41533;DHT22;27262;-35.248;149.138;2022-10-16T07:12:26;21.50;65.60
41533;DHT22;27262;-35.248;149.138;2022-10-16T07:14:56;21.50;65.60
41533;DHT22;27262;-35.248;149.138;2022-10-16T07:17:26;21.50;65.60
41533;DHT22;27262;-35.248;149.138;2022-10-16T07:19:56;21.50;65.50
41533;DHT22;27262;-35.248;149.138;2022-10-16T07:22:28;21.50;65.50
41533;DHT22;27262;-35.248;149.138;2022-10-16T07:24:58;21.50;65.50
41533;DHT22;27262;-35.248;149.138;2022-10-16T07:27:29;21.50;65.40
41533;DHT22;27262;-35.248;149.138;2022-10-16T07:29:59;21.50;65.30
41533;DHT22;27262;-35.248;149.138;2022-10-16T07:32:34;21.60;65.30
41533;DHT22;27262;-35.248;149.138;2022-10-16T07:35:05;21.60;65.10
41533;DHT22;27262;-35.248;149.138;2022-10-16T07:37:36;21.60;65.10
41533;DHT22;27262;-35.248;149.138;2022-10-16T07:40:07;21.60;65.00
41533;DHT22;27262;-35.248;149.138;2022-10-16T07:42:37;21.60;65.00
41533;DHT22;27262;-35.248;149.138;2022-10-16T07:45:07;21.60;65.00
41533;DHT22;27262;-35.248;149.138;2022-10-16T07:47:38;21.60;64.90
41533;DHT22;27262;-35.248;149.138;2022-10-16T07:50:09;21.60;64.90
41533;DHT22;27262;-35.248;149.138;2022-10-16T07:52:39;21.60;64.80
41533;DHT22;27262;-35.248;149.138;2022-10-16T07:55:10;21.60;64.70
41533;DHT22;27262;-35.248;149.138;2022-10-16T07:57:40;21.60;64.80
41533;DHT22;27262;-35.248;149.138;2022-10-16T08:00:11;21.60;64.80
41533;DHT22;27262;-35.248;149.138;2022-10-16T08:02:43;21.60;64.90
41533;DHT22;27262;-35.248;149.138;2022-10-16T08:05:13;21.60;65.00
41533;DHT22;27262;-35.248;149.138;2022-10-16T08:07:49;21.60;65.00
41533;DHT22;27262;-35.248;149.138;2022-10-16T08:10:20;21.60;65.00
41533;DHT22;27262;-35.248;149.138;2022-10-16T08:12:51;21.60;65.10
41533;DHT22;27262;-35.248;149.138;2022-10-16T08:15:21;21.60;65.10
41533;DHT22;27262;-35.248;149.138;2022-10-16T08:17:59;21.60;65.10
41533;DHT22;27262;-35.248;149.138;2022-10-16T08:20:31;21.60;65.10
41533;DHT22;27262;-35.248;149.138;2022-10-16T08:23:02;21.60;65.10
41533;DHT22;27262;-35.248;149.138;2022-10-16T08:25:35;21.60;65.10
41533;DHT22;27262;-35.248;149.138;2022-10-16T08:28:09;21.60;65.10
41533;DHT22;27262;-35.248;149.138;2022-10-16T08:30:40;21.60;65.20
41533;DHT22;27262;-35.248;149.138;2022-10-16T08:33:11;21.60;65.30
41533;DHT22;27262;-35.248;149.138;2022-10-16T08:35:41;21.60;65.20
41533;DHT22;27262;-35.248;149.138;2022-10-16T08:38:11;21.60;65.30
41533;DHT22;27262;-35.248;149.138;2022-10-16T08:40:42;21.70;65.60
41533;DHT22;27262;-35.248;149.138;2022-10-16T08:46:15;21.70;65.30
41533;DHT22;27262;-35.248;149.138;2022-10-16T08:48:54;21.60;65.50
41533;DHT22;27262;-35.248;149.138;2022-10-16T08:51:30;21.60;65.50
41533;DHT22;27262;-35.248;149.138;2022-10-16T08:54:06;21.60;65.50
41533;DHT22;27262;-35.248;149.138;2022-10-16T08:56:38;21.70;65.40
41533;DHT22;27262;-35.248;149.138;2022-10-16T08:59:11;21.70;65.50
41533;DHT22;27262;-35.248;149.138;2022-10-16T09:01:49;21.60;65.30
41533;DHT22;27262;-35.248;149.138;2022-10-16T09:04:30;21.70;65.50
41533;DHT22;27262;-35.248;149.138;2022-10-16T09:12:46;21.70;65.40
41533;DHT22;27262;-35.248;149.138;2022-10-16T09:21:16;21.60;65.40
41533;DHT22;27262;-35.248;149.138;2022-10-16T09:23:48;21.70;65.40
41533;DHT22;27262;-35.248;149.138;2022-10-16T09:26:19;21.60;65.30
41533;DHT22;27262;-35.248;149.138;2022-10-16T09:28:52;21.70;65.30
41533;DHT22;27262;-35.248;149.138;2022-10-16T09:31:23;21.60;65.20
41533;DHT22;27262;-35.248;149.138;2022-10-16T09:33:57;21.60;65.20
41533;DHT22;27262;-35.248;149.138;2022-10-16T09:36:29;21.70;65.30
41533;DHT22;27262;-35.248;149.138;2022-10-16T09:39:05;21.70;65.20
41533;DHT22;27262;-35.248;149.138;2022-10-16T09:41:39;21.60;65.10
41533;DHT22;27262;-35.248;149.138;2022-10-16T09:44:26;21.60;65.20
41533;DHT22;27262;-35.248;149.138;2022-10-16T09:47:10;21.60;65.00
41533;DHT22;27262;-35.248;149.138;2022-10-16T09:49:55;21.70;65.10
41533;DHT22;27262;-35.248;149.138;2022-10-16T09:52:26;21.60;65.00
41533;DHT22;27262;-35.248;149.138;2022-10-16T09:54:59;21.60;65.10
41533;DHT22;27262;-35.248;149.138;2022-10-16T09:57:29;21.60;65.00
41533;DHT22;27262;-35.248;149.138;2022-10-16T10:00:00;21.70;65.00
41533;DHT22;27262;-35.248;149.138;2022-10-16T10:02:36;21.60;65.00
41533;DHT22;27262;-35.248;149.138;2022-10-16T10:05:27;21.60;64.90
41533;DHT22;27262;-35.248;149.138;2022-10-16T10:08:02;21.60;64.90
41533;DHT22;27262;-35.248;149.138;2022-10-16T10:10:43;21.60;64.90
41533;DHT22;27262;-35.248;149.138;2022-10-16T10:13:31;21.60;64.80
41533;DHT22;27262;-35.248;149.138;2022-10-16T10:16:01;21.60;64.70
41533;DHT22;27262;-35.248;149.138;2022-10-16T10:18:32;21.60;64.90
41533;DHT22;27262;-35.248;149.138;2022-10-16T10:21:03;21.60;65.60
41533;DHT22;27262;-35.248;149.138;2022-10-16T10:23:35;21.60;64.80
41533;DHT22;27262;-35.248;149.138;2022-10-16T10:26:16;21.60;64.80
41533;DHT22;27262;-35.248;149.138;2022-10-16T10:29:30;21.60;64.80
41533;DHT22;27262;-35.248;149.138;2022-10-16T10:32:12;21.60;64.90
41533;DHT22;27262;-35.248;149.138;2022-10-16T10:35:04;21.60;64.90
41533;DHT22;27262;-35.248;149.138;2022-10-16T10:45:54;21.50;64.80
41533;DHT22;27262;-35.248;149.138;2022-10-16T10:51:37;21.40;64.90
41533;DHT22;27262;-35.248;149.138;2022-10-16T10:57:32;21.40;64.80
41533;DHT22;27262;-35.248;149.138;2022-10-16T11:08:20;21.40;64.80
41533;DHT22;27262;-35.248;149.138;2022-10-16T11:11:25;21.40;64.80
41533;DHT22;27262;-35.248;149.138;2022-10-16T11:14:11;21.40;64.80
41533;DHT22;27262;-35.248;149.138;2022-10-16T11:16:57;21.30;64.80
41533;DHT22;27262;-35.248;149.138;2022-10-16T11:19:50;21.30;64.70
41533;DHT22;27262;-35.248;149.138;2022-10-16T11:22:38;21.30;64.70
41533;DHT22;27262;-35.248;149.138;2022-10-16T11:25:28;21.40;64.80
41533;DHT22;27262;-35.248;149.138;2022-10-16T11:28:16;21.30;64.80
41533;DHT22;27262;-35.248;149.138;2022-10-16T11:41:27;21.20;64.90
41533;DHT22;27262;-35.248;149.138;2022-10-16T11:47:01;21.20;64.80
41533;DHT22;27262;-35.248;149.138;2022-10-16T11:50:09;21.20;64.90
41533;DHT22;27262;-35.248;149.138;2022-10-16T11:55:37;21.20;65.00
41533;DHT22;27262;-35.248;149.138;2022-10-16T11:58:33;21.10;65.00
41533;DHT22;27262;-35.248;149.138;2022-10-16T12:06:30;21.10;65.00
41533;DHT22;27262;-35.248;149.138;2022-10-16T12:09:02;21.10;65.00
41533;DHT22;27262;-35.248;149.138;2022-10-16T12:11:36;21.10;65.00
41533;DHT22;27262;-35.248;149.138;2022-10-16T12:19:24;21.10;64.90
41533;DHT22;27262;-35.248;149.138;2022-10-16T12:21:57;21.10;65.00
41533;DHT22;27262;-35.248;149.138;2022-10-16T12:27:03;21.10;64.90
41533;DHT22;27262;-35.248;149.138;2022-10-16T12:29:39;21.00;64.90
41533;DHT22;27262;-35.248;149.138;2022-10-16T12:32:28;21.00;64.90
41533;DHT22;27262;-35.248;149.138;2022-10-16T12:35:34;21.00;64.80
41533;DHT22;27262;-35.248;149.138;2022-10-16T12:38:28;21.00;64.80
41533;DHT22;27262;-35.248;149.138;2022-10-16T12:41:09;21.00;65.00
41533;DHT22;27262;-35.248;149.138;2022-10-16T12:43:45;20.90;65.00
41533;DHT22;27262;-35.248;149.138;2022-10-16T12:48:46;20.90;65.00
41533;DHT22;27262;-35.248;149.138;2022-10-16T12:51:36;20.90;64.90
41533;DHT22;27262;-35.248;149.138;2022-10-16T12:54:58;20.90;64.90
41533;DHT22;27262;-35.248;149.138;2022-10-16T13:00:04;20.90;64.90
41533;DHT22;27262;-35.248;149.138;2022-10-16T13:22:03;20.70;64.80
41533;DHT22;27262;-35.248;149.138;2022-10-16T13:27:56;20.70;64.70
41533;DHT22;27262;-35.248;149.138;2022-10-16T13:30:38;20.70;64.70
41533;DHT22;27262;-35.248;149.138;2022-10-16T13:33:21;20.70;64.80
41533;DHT22;27262;-35.248;149.138;2022-10-16T13:35:56;20.70;64.70
41533;DHT22;27262;-35.248;149.138;2022-10-16T13:38:28;20.60;64.70
41533;DHT22;27262;-35.248;149.138;2022-10-16T13:41:12;20.60;64.80
41533;DHT22;27262;-35.248;149.138;2022-10-16T13:43:53;20.60;64.70
41533;DHT22;27262;-35.248;149.138;2022-10-16T13:46:26;20.60;64.70
41533;DHT22;27262;-35.248;149.138;2022-10-16T13:49:05;20.60;64.70
41533;DHT22;27262;-35.248;149.138;2022-10-16T13:51:41;20.60;64.60
41533;DHT22;27262;-35.248;149.138;2022-10-16T13:54:11;20.60;64.70
41533;DHT22;27262;-35.248;149.138;2022-10-16T13:56:41;20.60;64.70
41533;DHT22;27262;-35.248;149.138;2022-10-16T13:59:25;20.60;64.70
41533;DHT22;27262;-35.248;149.138;2022-10-16T14:01:57;20.60;64.60
41533;DHT22;27262;-35.248;149.138;2022-10-16T14:04:32;20.50;64.70
41533;DHT22;27262;-35.248;149.138;2022-10-16T14:07:03;20.50;64.70
41533;DHT22;27262;-35.248;149.138;2022-10-16T14:09:33;20.50;64.70
41533;DHT22;27262;-35.248;149.138;2022-10-16T14:12:11;20.50;64.70
41533;DHT22;27262;-35.248;149.138;2022-10-16T14:14:47;20.50;64.70
41533;DHT22;27262;-35.248;149.138;2022-10-16T14:17:27;20.50;64.70
41533;DHT22;27262;-35.248;149.138;2022-10-16T14:20:00;20.50;64.80
41533;DHT22;27262;-35.248;149.138;2022-10-16T14:22:38;20.40;64.80
41533;DHT22;27262;-35.248;149.138;2022-10-16T14:25:24;20.40;64.80
41533;DHT22;27262;-35.248;149.138;2022-10-16T14:28:03;20.40;64.70
41533;DHT22;27262;-35.248;149.138;2022-10-16T14:30:35;20.40;64.80
41533;DHT22;27262;-35.248;149.138;2022-10-16T14:33:19;20.40;65.60
41533;DHT22;27262;-35.248;149.138;2022-10-16T14:38:49;20.40;64.80
41533;DHT22;27262;-35.248;149.138;2022-10-16T14:41:23;20.30;64.80
41533;DHT22;27262;-35.248;149.138;2022-10-16T14:44:06;20.30;64.80
41533;DHT22;27262;-35.248;149.138;2022-10-16T14:46:38;20.40;64.80
41533;DHT22;27262;-35.248;149.138;2022-10-16T14:51:41;20.30;64.80
41533;DHT22;27262;-35.248;149.138;2022-10-16T14:54:15;20.30;64.70
41533;DHT22;27262;-35.248;149.138;2022-10-16T14:56:54;20.30;64.70
41533;DHT22;27262;-35.248;149.138;2022-10-16T14:59:40;20.30;64.60
41533;DHT22;27262;-35.248;149.138;2022-10-16T15:05:02;20.30;64.60
41533;DHT22;27262;-35.248;149.138;2022-10-16T15:07:40;20.20;64.60
41533;DHT22;27262;-35.248;149.138;2022-10-16T15:10:11;20.20;64.60
41533;DHT22;27262;-35.248;149.138;2022-10-16T15:12:42;20.20;64.60
41533;DHT22;27262;-35.248;149.138;2022-10-16T15:15:21;20.20;64.60
41533;DHT22;27262;-35.248;149.138;2022-10-16T15:17:55;20.20;64.60
41533;DHT22;27262;-35.248;149.138;2022-10-16T15:20:28;20.20;64.70
41533;DHT22;27262;-35.248;149.138;2022-10-16T15:23:04;20.10;64.60
41533;DHT22;27262;-35.248;149.138;2022-10-16T15:25:43;20.10;64.60
41533;DHT22;27262;-35.248;149.138;2022-10-16T15:28:15;20.10;64.60
41533;DHT22;27262;-35.248;149.138;2022-10-16T15:30:46;20.10;64.60
41533;DHT22;27262;-35.248;149.138;2022-10-16T15:33:19;20.10;64.60
41533;DHT22;27262;-35.248;149.138;2022-10-16T15:35:51;20.10;64.60
41533;DHT22;27262;-35.248;149.138;2022-10-16T15:38:28;20.10;64.60
41533;DHT22;27262;-35.248;149.138;2022-10-16T15:40:58;20.10;64.60
41533;DHT22;27262;-35.248;149.138;2022-10-16T15:43:28;20.00;64.60
41533;DHT22;27262;-35.248;149.138;2022-10-16T15:46:12;20.10;64.60
41533;DHT22;27262;-35.248;149.138;2022-10-16T15:48:43;20.10;64.50
41533;DHT22;27262;-35.248;149.138;2022-10-16T15:51:14;20.00;64.60
41533;DHT22;27262;-35.248;149.138;2022-10-16T15:53:44;20.00;64.60
41533;DHT22;27262;-35.248;149.138;2022-10-16T15:56:15;20.00;64.60
41533;DHT22;27262;-35.248;149.138;2022-10-16T15:58:45;19.90;64.50
41533;DHT22;27262;-35.248;149.138;2022-10-16T16:01:16;20.00;64.60
41533;DHT22;27262;-35.248;149.138;2022-10-16T16:03:46;20.00;64.60
41533;DHT22;27262;-35.248;149.138;2022-10-16T16:06:16;19.90;64.60
41533;DHT22;27262;-35.248;149.138;2022-10-16T16:08:47;19.90;64.60
41533;DHT22;27262;-35.248;149.138;2022-10-16T16:11:18;19.90;64.60
41533;DHT22;27262;-35.248;149.138;2022-10-16T16:13:48;19.90;64.50
41533;DHT22;27262;-35.248;149.138;2022-10-16T16:16:18;19.90;64.60
41533;DHT22;27262;-35.248;149.138;2022-10-16T16:18:53;19.90;64.60
41533;DHT22;27262;-35.248;149.138;2022-10-16T16:21:23;19.90;64.60
41533;DHT22;27262;-35.248;149.138;2022-10-16T16:23:54;19.90;64.60
41533;DHT22;27262;-35.248;149.138;2022-10-16T16:26:27;19.90;64.60
41533;DHT22;27262;-35.248;149.138;2022-10-16T16:29:02;19.90;64.60
41533;DHT22;27262;-35.248;149.138;2022-10-16T16:31:33;19.80;64.60
41533;DHT22;27262;-35.248;149.138;2022-10-16T16:34:04;19.80;64.60
41533;DHT22;27262;-35.248;149.138;2022-10-16T16:36:36;19.80;64.60
41533;DHT22;27262;-35.248;149.138;2022-10-16T16:39:07;19.80;64.60
41533;DHT22;27262;-35.248;149.138;2022-10-16T16:41:38;19.80;64.60
41533;DHT22;27262;-35.248;149.138;2022-10-16T16:44:11;19.80;64.60
41533;DHT22;27262;-35.248;149.138;2022-10-16T16:46:42;19.80;64.60
41533;DHT22;27262;-35.248;149.138;2022-10-16T16:49:13;19.80;64.60
41533;DHT22;27262;-35.248;149.138;2022-10-16T16:51:44;19.70;64.60
41533;DHT22;27262;-35.248;149.138;2022-10-16T16:54:15;19.70;64.70
41533;DHT22;27262;-35.248;149.138;2022-10-16T16:56:45;19.70;64.60
41533;DHT22;27262;-35.248;149.138;2022-10-16T16:59:20;19.70;64.70
41533;DHT22;27262;-35.248;149.138;2022-10-16T17:01:51;19.70;64.70
41533;DHT22;27262;-35.248;149.138;2022-10-16T17:04:24;19.70;64.70
41533;DHT22;27262;-35.248;149.138;2022-10-16T17:06:54;19.70;64.70
41533;DHT22;27262;-35.248;149.138;2022-10-16T17:09:25;19.70;64.70
41533;DHT22;27262;-35.248;149.138;2022-10-16T17:11:55;19.70;64.80
41533;DHT22;27262;-35.248;149.138;2022-10-16T17:14:25;19.70;64.80
41533;DHT22;27262;-35.248;149.138;2022-10-16T17:16:55;19.60;64.70
41533;DHT22;27262;-35.248;149.138;2022-10-16T17:19:25;19.70;64.80
41533;DHT22;27262;-35.248;149.138;2022-10-16T17:21:56;19.60;64.70
41533;DHT22;27262;-35.248;149.138;2022-10-16T17:24:26;19.60;64.90